createdAt,value
2019-01-30T00:01:27.923Z,125.77
2019-01-30T00:03:58.325Z,118.70
2019-01-30T00:06:28.548Z,120.20
2019-01-30T00:08:58.795Z,124.07
2019-01-30T00:11:29.007Z,89.97
2019-01-30T00:14:00.173Z,73.97
2019-01-30T00:16:30.651Z,64.60
2019-01-30T00:19:01.252Z,51.73
2019-01-30T00:21:31.533Z,48.93
2019-01-30T00:24:01.763Z,41.00
2019-01-30T00:26:31.982Z,41.90
2019-01-30T00:29:02.227Z,45.73
2019-01-30T00:31:32.514Z,41.37
2019-01-30T00:34:02.749Z,53.73
2019-01-30T00:36:33.025Z,48.00
2019-01-30T00:39:04.899Z,50.03
2019-01-30T00:41:36.709Z,44.00
2019-01-30T00:44:06.934Z,53.27
2019-01-30T00:46:37.135Z,46.00
2019-01-30T00:49:07.366Z,42.10
2019-01-30T00:51:37.579Z,43.53
2019-01-30T00:54:07.826Z,36.77
2019-01-30T00:56:38.010Z,48.50
2019-01-30T00:59:08.232Z,46.70
2019-01-30T01:01:38.444Z,49.33
2019-01-30T01:04:08.664Z,55.63
2019-01-30T01:06:38.871Z,42.23
2019-01-30T01:09:10.372Z,50.27
2019-01-30T01:11:40.577Z,44.60
2019-01-30T01:14:11.640Z,49.60
2019-01-30T01:16:43.115Z,55.70
2019-01-30T01:19:13.374Z,57.87
2019-01-30T01:21:43.848Z,61.93
2019-01-30T01:24:14.075Z,57.93
2019-01-30T01:26:44.284Z,52.87
2019-01-30T01:29:14.509Z,57.30
2019-01-30T01:31:44.711Z,52.90
2019-01-30T01:34:14.935Z,40.43
2019-01-30T01:36:45.157Z,41.33
2019-01-30T01:39:15.382Z,43.93
2019-01-30T01:41:45.587Z,36.03
2019-01-30T01:44:15.817Z,42.27
2019-01-30T01:46:46.024Z,37.77
2019-01-30T01:49:17.496Z,38.20
2019-01-30T01:51:47.697Z,40.50
2019-01-30T01:54:17.921Z,42.20
2019-01-30T01:56:48.128Z,45.67
2019-01-30T01:59:18.360Z,44.50
2019-01-30T02:01:48.568Z,45.33
2019-01-30T02:04:18.803Z,44.83
2019-01-30T02:06:49.010Z,43.37
2019-01-30T02:09:19.236Z,42.50
2019-01-30T02:11:49.439Z,37.30
2019-01-30T02:14:20.659Z,45.23
2019-01-30T02:16:50.869Z,47.90
2019-01-30T02:19:21.091Z,40.87
2019-01-30T02:21:51.301Z,42.77
2019-01-30T02:24:21.531Z,39.27
2019-01-30T02:26:51.844Z,39.43
2019-01-30T02:29:22.042Z,36.57
2019-01-30T02:31:52.249Z,44.60
2019-01-30T02:34:22.473Z,39.00
2019-01-30T02:36:58.487Z,36.63
2019-01-30T02:39:28.722Z,36.03
2019-01-30T02:41:58.915Z,45.07
2019-01-30T02:44:29.169Z,38.70
2019-01-30T02:46:59.366Z,37.33
2019-01-30T02:49:29.590Z,44.03
2019-01-30T02:51:59.800Z,39.67
2019-01-30T02:54:30.027Z,42.77
2019-01-30T02:57:01.795Z,36.80
2019-01-30T02:59:32.026Z,32.97
2019-01-30T03:02:03.870Z,36.97
2019-01-30T03:04:34.098Z,35.17
2019-01-30T03:07:04.313Z,32.90
2019-01-30T03:09:34.546Z,45.33
2019-01-30T03:12:04.755Z,37.50
2019-01-30T03:14:35.850Z,37.13
2019-01-30T03:17:06.049Z,33.53
2019-01-30T03:19:36.285Z,29.67
2019-01-30T03:22:07.836Z,30.10
2019-01-30T03:24:38.080Z,30.73
2019-01-30T03:27:08.292Z,34.27
2019-01-30T03:29:38.523Z,31.63
2019-01-30T03:32:08.746Z,37.13
2019-01-30T03:34:38.965Z,31.37
2019-01-30T03:37:09.179Z,28.70
2019-01-30T03:39:39.414Z,33.60
2019-01-30T03:42:09.628Z,32.23
2019-01-30T03:44:39.861Z,33.03
2019-01-30T03:47:10.070Z,32.37
2019-01-30T03:49:40.310Z,29.53
2019-01-30T03:52:10.525Z,28.37
2019-01-30T03:54:40.760Z,30.10
2019-01-30T03:57:10.982Z,29.27
2019-01-30T03:59:41.220Z,30.73
2019-01-30T04:02:11.429Z,26.90
2019-01-30T04:04:41.658Z,25.87
2019-01-30T04:07:11.872Z,26.17
2019-01-30T04:09:42.104Z,30.67
2019-01-30T04:12:12.319Z,25.63
2019-01-30T04:14:43.629Z,26.63
2019-01-30T04:17:13.851Z,29.83
2019-01-30T04:19:44.090Z,26.27
2019-01-30T04:22:15.559Z,30.77
2019-01-30T04:24:50.470Z,28.67
2019-01-30T04:27:21.471Z,30.80
2019-01-30T04:29:51.733Z,25.93
2019-01-30T04:32:21.942Z,26.70
2019-01-30T04:34:52.172Z,23.90
2019-01-30T04:37:22.379Z,22.37
2019-01-30T04:39:52.618Z,25.00
2019-01-30T04:42:22.828Z,30.73
2019-01-30T04:44:53.063Z,21.17
2019-01-30T04:47:23.271Z,27.20
2019-01-30T04:49:53.503Z,27.43
2019-01-30T04:52:23.721Z,35.70
2019-01-30T04:54:53.953Z,27.37
2019-01-30T04:57:24.168Z,28.87
2019-01-30T04:59:54.395Z,28.23
2019-01-30T05:02:24.608Z,24.77
2019-01-30T05:04:54.845Z,29.97
2019-01-30T05:07:25.060Z,27.23
2019-01-30T05:09:55.296Z,22.73
2019-01-30T05:12:26.777Z,28.10
2019-01-30T05:15:00.705Z,28.20
2019-01-30T05:17:31.178Z,30.70
2019-01-30T05:20:01.435Z,29.20
2019-01-30T05:22:32.865Z,28.47
2019-01-30T05:25:03.082Z,26.70
2019-01-30T05:27:34.530Z,23.53
2019-01-30T05:30:16.915Z,27.80
2019-01-30T05:32:47.245Z,26.63
2019-01-30T05:35:17.490Z,31.17
2019-01-30T05:37:51.291Z,25.40
2019-01-30T05:40:22.638Z,31.00
2019-01-30T05:42:53.044Z,27.80
2019-01-30T05:45:23.281Z,24.50
2019-01-30T05:47:53.491Z,34.53
2019-01-30T05:50:23.803Z,43.10
2019-01-30T05:52:54.011Z,38.37
2019-01-30T05:55:24.235Z,38.70
2019-01-30T05:57:54.456Z,36.63
2019-01-30T06:00:34.419Z,34.97
2019-01-30T06:03:12.830Z,38.27
2019-01-30T06:05:46.120Z,35.47
2019-01-30T06:08:16.321Z,39.40
2019-01-30T06:10:46.719Z,33.83
2019-01-30T06:13:18.842Z,32.00
2019-01-30T06:15:51.278Z,33.70
2019-01-30T06:18:21.660Z,27.87
2019-01-30T06:20:51.905Z,39.53
2019-01-30T06:23:24.158Z,30.77
2019-01-30T06:25:54.396Z,42.40
2019-01-30T06:28:28.637Z,35.63
2019-01-30T06:30:56.530Z,41.03
2019-01-30T06:33:26.738Z,41.93
2019-01-30T06:35:56.970Z,38.60
2019-01-30T06:38:27.178Z,41.83
2019-01-30T06:40:57.411Z,46.93
2019-01-30T06:43:27.617Z,45.90
2019-01-30T06:45:57.847Z,56.67
2019-01-30T06:48:28.063Z,43.00
2019-01-30T06:50:58.296Z,41.83
2019-01-30T06:53:28.507Z,44.83
2019-01-30T06:55:58.729Z,47.37
2019-01-30T06:58:28.940Z,50.70
2019-01-30T07:01:00.242Z,44.60
2019-01-30T07:03:30.457Z,47.53
2019-01-30T07:06:00.686Z,45.13
2019-01-30T07:08:30.901Z,41.80
2019-01-30T07:11:10.689Z,40.60
2019-01-30T07:13:39.202Z,40.33
2019-01-30T07:16:10.200Z,50.10
2019-01-30T07:18:41.141Z,48.47
2019-01-30T07:21:11.374Z,44.63
2019-01-30T07:23:41.603Z,43.43
2019-01-30T07:26:12.022Z,43.23
2019-01-30T07:28:42.386Z,43.53
2019-01-30T07:31:12.676Z,39.83
2019-01-30T07:33:42.920Z,46.23
2019-01-30T07:36:13.215Z,43.77
2019-01-30T07:38:43.664Z,53.63
2019-01-30T07:41:15.068Z,41.43
2019-01-30T07:43:45.622Z,74.07
2019-01-30T07:46:17.495Z,65.13
2019-01-30T07:48:48.697Z,69.20
2019-01-30T07:51:18.945Z,50.40
2019-01-30T07:53:49.168Z,89.70
2019-01-30T07:56:19.471Z,74.20
2019-01-30T07:58:49.678Z,57.43
2019-01-30T08:01:22.163Z,52.80
2019-01-30T08:03:52.479Z,56.50
2019-01-30T08:06:22.826Z,46.90
2019-01-30T08:08:53.676Z,46.10
2019-01-30T08:11:24.131Z,61.10
2019-01-30T08:13:55.555Z,131.60
2019-01-30T08:16:25.798Z,63.90
2019-01-30T08:18:56.019Z,71.47
2019-01-30T08:21:28.001Z,70.87
2019-01-30T08:23:58.829Z,57.43
2019-01-30T08:26:29.220Z,47.83
2019-01-30T08:29:00.992Z,58.90
2019-01-30T08:31:31.434Z,68.97
2019-01-30T08:34:01.647Z,61.93
2019-01-30T08:36:31.911Z,49.53
2019-01-30T08:39:02.139Z,51.33
2019-01-30T08:41:34.211Z,57.70
2019-01-30T08:44:04.432Z,61.30
2019-01-30T08:46:34.671Z,44.20
2019-01-30T08:49:06.028Z,43.60
2019-01-30T08:51:38.131Z,43.70
2019-01-30T08:54:08.345Z,47.77
2019-01-30T08:56:39.193Z,48.63
2019-01-30T08:59:10.868Z,40.93
2019-01-30T09:01:41.159Z,39.17
2019-01-30T09:04:11.498Z,37.87
2019-01-30T09:06:41.908Z,49.27
2019-01-30T09:09:12.413Z,83.70
2019-01-30T09:11:42.682Z,37.93
2019-01-30T09:14:14.858Z,37.93
2019-01-30T09:16:46.811Z,40.50
2019-01-30T09:19:17.154Z,35.27
2019-01-30T09:21:47.407Z,42.53
2019-01-30T09:24:17.742Z,27.40
2019-01-30T09:26:49.508Z,55.77
2019-01-30T09:29:19.730Z,59.80
2019-01-30T09:31:49.962Z,36.20
2019-01-30T09:34:20.261Z,30.50
2019-01-30T09:36:50.655Z,31.97
2019-01-30T09:39:23.491Z,36.47
2019-01-30T09:41:53.929Z,72.77
2019-01-30T09:44:24.187Z,44.60
2019-01-30T09:46:54.404Z,31.20
2019-01-30T09:49:27.534Z,33.77
2019-01-30T09:51:57.881Z,27.03
2019-01-30T09:54:29.680Z,35.97
2019-01-30T09:56:59.924Z,24.53
2019-01-30T09:59:31.032Z,24.47
2019-01-30T10:02:01.336Z,24.20
2019-01-30T10:04:31.555Z,22.77
2019-01-30T10:07:01.795Z,18.63
2019-01-30T10:09:32.012Z,23.07
2019-01-30T10:12:02.228Z,21.93
2019-01-30T10:14:32.439Z,16.63
2019-01-30T10:17:03.814Z,13.93
2019-01-30T10:19:34.102Z,15.10
2019-01-30T10:22:04.512Z,16.00
2019-01-30T10:24:34.721Z,19.93
2019-01-30T10:27:04.960Z,26.73
2019-01-30T10:29:36.119Z,23.03
2019-01-30T10:32:06.359Z,16.53
2019-01-30T10:34:36.563Z,22.07
2019-01-30T10:37:06.819Z,20.07
2019-01-30T10:39:37.017Z,17.43
2019-01-30T10:42:07.245Z,16.13
2019-01-30T10:44:37.462Z,18.03
2019-01-30T10:47:07.693Z,19.27
2019-01-30T10:49:37.902Z,13.03
2019-01-30T10:52:08.145Z,25.80
2019-01-30T10:54:38.368Z,20.70
2019-01-30T10:57:08.812Z,21.10
2019-01-30T10:59:39.029Z,25.93
2019-01-30T11:02:09.250Z,16.73
2019-01-30T11:04:39.475Z,31.17
2019-01-30T11:07:09.701Z,18.30
2019-01-30T11:09:39.937Z,17.80
2019-01-30T11:12:10.164Z,18.07
2019-01-30T11:14:41.077Z,18.33
2019-01-30T11:17:12.348Z,13.80
2019-01-30T11:19:42.564Z,17.03
2019-01-30T11:22:12.805Z,14.80
2019-01-30T11:24:43.022Z,16.17
2019-01-30T11:27:13.292Z,40.33
2019-01-30T11:29:43.566Z,20.53
2019-01-30T11:32:13.790Z,21.43
2019-01-30T11:34:43.989Z,16.37
2019-01-30T11:37:14.223Z,22.40
2019-01-30T11:39:44.421Z,18.20
2019-01-30T11:42:15.721Z,26.10
2019-01-30T11:44:46.005Z,23.33
2019-01-30T11:47:16.236Z,25.63
2019-01-30T11:49:46.432Z,22.83
2019-01-30T11:52:16.735Z,22.70
2019-01-30T11:54:46.944Z,18.17
2019-01-30T11:57:17.172Z,18.17
2019-01-30T11:59:47.380Z,17.37
2019-01-30T12:02:17.613Z,13.43
2019-01-30T12:04:47.828Z,32.47
2019-01-30T12:07:18.051Z,19.30
2019-01-30T12:09:48.258Z,12.83
2019-01-30T12:12:18.491Z,14.03
2019-01-30T12:14:48.696Z,14.33
2019-01-30T12:17:19.703Z,15.63
2019-01-30T12:19:49.909Z,14.70
2019-01-30T12:22:20.159Z,16.07
2019-01-30T12:24:50.374Z,15.10
2019-01-30T12:27:20.867Z,17.53
2019-01-30T12:29:52.173Z,18.30
2019-01-30T12:32:22.447Z,22.73
2019-01-30T12:34:52.641Z,20.20
2019-01-30T12:37:23.946Z,46.43
2019-01-30T12:39:54.149Z,47.73
2019-01-30T12:42:24.379Z,26.13
2019-01-30T12:44:54.586Z,22.07
2019-01-30T12:47:24.810Z,19.93
2019-01-30T12:49:55.016Z,34.40
2019-01-30T12:52:25.295Z,19.07
2019-01-30T12:54:56.634Z,19.07
2019-01-30T12:57:26.857Z,34.93
2019-01-30T12:59:57.128Z,27.57
2019-01-30T13:02:27.358Z,30.30
2019-01-30T13:04:57.561Z,24.80
2019-01-30T13:07:27.787Z,25.33
2019-01-30T13:10:00.209Z,29.73
2019-01-30T13:12:30.449Z,54.60
2019-01-30T13:15:00.679Z,57.87
2019-01-30T13:17:31.770Z,39.33
2019-01-30T13:20:01.995Z,31.40
2019-01-30T13:22:33.500Z,68.40
2019-01-30T13:25:04.687Z,53.03
2019-01-30T13:27:34.942Z,68.60
2019-01-30T13:30:17.434Z,75.80
2019-01-30T13:32:48.837Z,71.03
2019-01-30T13:35:19.333Z,54.87
2019-01-30T13:37:50.484Z,43.67
2019-01-30T13:40:23.544Z,62.93
2019-01-30T13:42:54.932Z,71.47
2019-01-30T13:45:25.213Z,52.63
2019-01-30T13:47:55.456Z,67.43
2019-01-30T13:50:27.233Z,108.90
2019-01-30T13:52:57.453Z,58.97
2019-01-30T13:55:27.675Z,50.50
2019-01-30T13:57:58.098Z,44.33
2019-01-30T14:00:30.861Z,24.07
2019-01-30T14:03:01.092Z,54.67
2019-01-30T14:05:31.952Z,33.77
2019-01-30T14:08:02.204Z,24.93
2019-01-30T14:10:32.494Z,49.77
2019-01-30T14:13:02.696Z,37.87
2019-01-30T14:15:33.476Z,31.73
2019-01-30T14:18:06.378Z,48.47
2019-01-30T14:20:36.564Z,23.43
2019-01-30T14:23:06.774Z,43.10
2019-01-30T14:25:37.041Z,49.90
2019-01-30T14:28:08.786Z,47.53
2019-01-30T14:30:41.742Z,57.57
2019-01-30T14:33:11.971Z,61.50
2019-01-30T14:35:42.194Z,36.23
2019-01-30T14:41:16.139Z,60.93
2019-01-30T14:43:46.693Z,56.50
2019-01-30T14:46:17.251Z,58.87
2019-01-30T14:48:48.662Z,53.93
2019-01-30T14:51:18.896Z,44.67
2019-01-30T14:53:49.176Z,74.63
2019-01-30T14:56:19.638Z,72.00
2019-01-30T14:58:51.050Z,58.90
2019-01-30T15:01:21.356Z,65.93
2019-01-30T15:03:51.600Z,46.50
2019-01-30T15:06:21.883Z,56.53
2019-01-30T15:08:52.649Z,56.67
2019-01-30T15:11:22.966Z,58.30
2019-01-30T15:13:53.204Z,68.70
2019-01-30T15:16:23.472Z,47.13
2019-01-30T15:18:53.921Z,42.30
2019-01-30T15:21:24.529Z,66.43
2019-01-30T15:23:54.741Z,51.27
2019-01-30T15:26:25.036Z,62.87
2019-01-30T15:28:55.268Z,55.87
2019-01-30T15:31:26.719Z,66.50
2019-01-30T15:33:56.968Z,62.33
2019-01-30T15:36:27.275Z,58.93
2019-01-30T15:38:57.681Z,70.70
2019-01-30T15:41:29.248Z,93.03
2019-01-30T15:43:59.489Z,47.77
2019-01-30T15:46:29.930Z,53.47
2019-01-30T15:49:00.469Z,74.20
2019-01-30T15:51:32.196Z,79.67
2019-01-30T15:54:02.443Z,97.40
2019-01-30T15:56:32.743Z,61.23
2019-01-30T15:59:03.166Z,54.40
2019-01-30T16:01:33.441Z,48.80
2019-01-30T16:04:06.038Z,46.67
2019-01-30T16:06:37.844Z,75.37
2019-01-30T16:09:07.652Z,144.40
2019-01-30T16:11:38.588Z,68.57
2019-01-30T16:14:09.211Z,94.40
2019-01-30T16:16:39.651Z,99.10
2019-01-30T16:19:10.781Z,113.60
2019-01-30T16:21:41.336Z,103.23
2019-01-30T16:24:11.605Z,94.80
2019-01-30T16:26:42.118Z,169.40
2019-01-30T16:29:12.381Z,126.30
2019-01-30T16:31:42.673Z,110.07
2019-01-30T16:34:13.026Z,102.43
2019-01-30T16:36:43.306Z,128.73
2019-01-30T16:39:13.569Z,93.50
2019-01-30T16:41:44.026Z,77.30
2019-01-30T16:44:14.292Z,127.27
2019-01-30T16:46:46.013Z,99.50
2019-01-30T16:49:16.552Z,76.17
2019-01-30T16:51:46.839Z,133.80
2019-01-30T16:54:17.412Z,151.60
2019-01-30T16:56:47.700Z,102.07
2019-01-30T16:59:19.050Z,192.00
2019-01-30T17:01:50.408Z,145.80
2019-01-30T17:04:20.686Z,173.17
2019-01-30T17:06:53.867Z,149.10
2019-01-30T17:09:25.584Z,194.70
2019-01-30T17:11:57.769Z,93.90
2019-01-30T17:14:28.251Z,76.67
2019-01-30T17:16:59.724Z,95.63
2019-01-30T17:19:33.158Z,120.47
2019-01-30T17:22:03.731Z,99.63
2019-01-30T17:24:35.611Z,93.30
2019-01-30T17:27:08.192Z,80.17
2019-01-30T17:29:38.633Z,93.93
2019-01-30T17:32:08.903Z,120.67
2019-01-30T17:34:39.166Z,82.33
2019-01-30T17:37:09.802Z,68.73
2019-01-30T17:39:41.675Z,89.20
2019-01-30T17:42:12.228Z,167.70
2019-01-30T17:44:42.488Z,119.77
2019-01-30T17:47:12.776Z,142.33
2019-01-30T17:49:43.043Z,83.70
2019-01-30T17:52:16.359Z,87.10
2019-01-30T17:54:47.004Z,81.07
2019-01-30T17:57:17.574Z,77.67
2019-01-30T17:59:48.863Z,81.03
2019-01-30T18:02:19.535Z,93.87
2019-01-30T18:04:49.799Z,103.33
2019-01-30T18:07:20.065Z,89.57
2019-01-30T18:09:50.693Z,119.37
2019-01-30T18:12:20.968Z,117.00
2019-01-30T18:14:55.606Z,149.87
2019-01-30T18:17:29.621Z,93.73
2019-01-30T18:20:04.153Z,88.63
2019-01-30T18:22:34.497Z,113.13
2019-01-30T18:25:11.929Z,101.37
2019-01-30T18:27:44.287Z,84.17
2019-01-30T18:30:23.001Z,108.20
2019-01-30T18:32:57.921Z,111.07
2019-01-30T18:35:28.666Z,89.70
2019-01-30T18:37:59.084Z,90.97
2019-01-30T18:40:32.830Z,128.40
2019-01-30T18:43:03.368Z,104.07
2019-01-30T18:45:33.760Z,114.77
2019-01-30T18:48:04.706Z,94.13
2019-01-30T18:50:35.140Z,111.07
2019-01-30T18:53:05.638Z,83.53
2019-01-30T18:55:35.991Z,113.07
2019-01-30T18:58:08.459Z,97.93
2019-01-30T19:00:46.396Z,64.47
2019-01-30T19:03:16.751Z,86.57
2019-01-30T19:05:50.359Z,72.60
2019-01-30T19:08:23.568Z,68.90
2019-01-30T19:10:54.265Z,82.00
2019-01-30T19:13:25.299Z,85.30
2019-01-30T19:15:55.953Z,93.17
2019-01-30T19:18:31.174Z,105.47
2019-01-30T19:21:02.655Z,102.93
2019-01-30T19:23:34.098Z,87.53
2019-01-30T19:26:08.958Z,83.77
2019-01-30T19:28:40.100Z,123.77
2019-01-30T19:31:10.633Z,81.90
2019-01-30T19:33:41.238Z,99.60
2019-01-30T19:36:11.668Z,108.50
2019-01-30T19:38:42.290Z,110.87
2019-01-30T19:41:13.098Z,148.43
2019-01-30T19:43:43.612Z,132.03
2019-01-30T19:46:15.910Z,159.20
2019-01-30T19:48:47.539Z,139.60
2019-01-30T19:51:17.931Z,149.33
2019-01-30T19:53:49.656Z,131.17
2019-01-30T19:56:21.122Z,94.07
2019-01-30T19:58:52.605Z,127.03
2019-01-30T20:01:23.095Z,102.97
2019-01-30T20:03:54.584Z,85.23
2019-01-30T20:06:32.065Z,86.40
2019-01-30T20:09:04.962Z,95.00
2019-01-30T20:11:37.081Z,81.33
2019-01-30T20:14:11.198Z,76.77
2019-01-30T20:16:43.758Z,77.33
2019-01-30T20:19:15.858Z,78.40
2019-01-30T20:21:47.132Z,75.17
2019-01-30T20:24:17.537Z,72.00
2019-01-30T20:26:48.982Z,85.20
2019-01-30T20:29:20.447Z,76.13
2019-01-30T20:31:53.426Z,80.70
2019-01-30T20:34:24.903Z,97.33
2019-01-30T20:36:55.168Z,80.40
2019-01-30T20:39:34.256Z,84.77
2019-01-30T20:42:04.858Z,73.27
2019-01-30T20:44:36.398Z,85.13
2019-01-30T20:47:09.657Z,87.63
2019-01-30T20:49:40.090Z,79.40
2019-01-30T20:52:11.019Z,77.40
2019-01-30T20:54:43.660Z,80.90
2019-01-30T20:57:18.489Z,90.00
2019-01-30T20:59:48.931Z,96.93
2019-01-30T21:02:20.714Z,107.73
2019-01-30T21:04:51.266Z,110.00
2019-01-30T21:07:22.014Z,111.90
2019-01-30T21:09:52.565Z,88.00
2019-01-30T21:12:24.374Z,92.00
2019-01-30T21:14:55.230Z,93.00
2019-01-30T21:17:26.427Z,104.83
2019-01-30T21:19:57.868Z,87.97
2019-01-30T21:22:28.927Z,84.43
2019-01-30T21:25:01.268Z,87.43
2019-01-30T21:27:32.950Z,88.73
2019-01-30T21:30:03.605Z,120.17
2019-01-30T21:32:34.347Z,98.40
2019-01-30T21:35:06.509Z,153.47
2019-01-30T21:37:48.366Z,125.60
2019-01-30T21:40:14.249Z,125.97
2019-01-30T21:42:46.496Z,122.23
2019-01-30T21:45:29.105Z,97.07
2019-01-30T21:48:02.225Z,107.70
2019-01-30T21:50:36.444Z,90.67
2019-01-30T21:53:06.902Z,103.37
2019-01-30T21:55:38.345Z,136.87
2019-01-30T21:58:09.849Z,143.67
2019-01-30T22:00:40.316Z,122.57
2019-01-30T22:03:11.789Z,132.50
2019-01-30T22:05:43.527Z,153.13
2019-01-30T22:08:15.179Z,137.97
2019-01-30T22:10:45.650Z,110.40
2019-01-30T22:13:16.050Z,102.83
2019-01-30T22:15:47.792Z,105.13
2019-01-30T22:18:19.299Z,108.00
2019-01-30T22:20:49.769Z,99.93
2019-01-30T22:23:20.949Z,110.57
2019-01-30T22:25:52.364Z,82.50
2019-01-30T22:28:23.843Z,88.13
2019-01-30T22:30:55.263Z,81.13
2019-01-30T22:33:26.746Z,84.80
2019-01-30T22:35:58.178Z,76.13
2019-01-30T22:38:29.630Z,87.53
2019-01-30T22:41:01.081Z,72.80
2019-01-30T22:43:32.532Z,71.40
2019-01-30T22:46:04.890Z,88.13
2019-01-30T22:48:35.508Z,75.03
2019-01-30T22:51:05.945Z,89.73
2019-01-30T22:53:37.425Z,93.30
2019-01-30T22:56:08.843Z,95.77
2019-01-30T22:58:40.320Z,82.63
2019-01-30T23:01:20.491Z,76.73
2019-01-30T23:03:56.337Z,71.80
2019-01-30T23:06:32.950Z,82.03
2019-01-30T23:09:21.728Z,69.57
2019-01-30T23:12:04.164Z,84.00
2019-01-30T23:14:37.993Z,75.97
2019-01-30T23:17:20.446Z,73.20
2019-01-30T23:19:54.174Z,72.93
2019-01-30T23:22:28.051Z,81.63
2019-01-30T23:25:29.617Z,71.37
2019-01-30T23:28:03.222Z,72.40
2019-01-30T23:30:51.710Z,67.10
2019-01-30T23:33:32.478Z,70.33
2019-01-30T23:36:15.154Z,69.50
2019-01-30T23:38:57.027Z,69.87
2019-01-30T23:41:50.182Z,71.57
2019-01-30T23:44:29.920Z,79.03
2019-01-30T23:47:36.732Z,65.70
2019-01-30T23:50:16.422Z,73.57
2019-01-30T23:53:01.451Z,68.97
2019-01-30T23:55:58.004Z,75.63
2019-01-30T23:58:49.816Z,71.13
